Time;durP1;ratioP1;P1;durP2;ratioP2;P2;SDS_P1;SDS_P2;PMS_P1;PMS_P2;Temp;Humidity;BMP_temperature;BMP_pressure;BME280_temperature;BME280_humidity;BME280_pressure;Samples;Min_cycle;Max_cycle;Signal;HPM_P1;HPM_P2
2021/10/19 00:00:21;;;;;;;6.93;4.00;;;;;;;;;;4915392;29;20031;-37
2021/10/19 00:02:46;;;;;;;9.18;5.13;;;;;;;;;;4915688;29;20072;-37
2021/10/19 00:05:13;;;;;;;8.80;4.50;;;;;;;;;;4915387;29;20382;-37
2021/10/19 00:07:39;;;;;;;6.45;4.47;;;;;;;;;;4915358;29;20395;-39
2021/10/19 00:10:05;;;;;;;4.78;3.78;;;;;;;;;;4915395;29;20080;-37
2021/10/19 00:12:30;;;;;;;5.28;3.80;;;;;;;;;;4915244;29;20032;-37
2021/10/19 00:14:56;;;;;;;5.03;3.50;;;;;;;;;;4915251;29;20043;-38
2021/10/19 00:17:21;;;;;;;5.57;3.60;;;;;;;;;;4915415;29;20052;-37
2021/10/19 00:19:47;;;;;;;9.73;4.97;;;;;;;;;;4915201;29;20380;-37
2021/10/19 00:22:12;;;;;;;7.22;4.20;;;;;;;;;;4915225;29;20361;-37
2021/10/19 00:24:38;;;;;;;7.22;4.20;;;;;;;;;;4915417;29;20476;-37
2021/10/19 00:27:05;;;;;;;6.97;4.43;;;;;;;;;;4915428;29;20096;-37
2021/10/19 00:29:30;;;;;;;5.32;4.25;;;;;;;;;;4915040;29;20036;-37
2021/10/19 00:31:56;;;;;;;5.95;4.10;;;;;;;;;;4914894;29;20035;-38
2021/10/19 00:34:21;;;;;;;5.97;3.92;;;;;;;;;;4914925;29;20058;-38
2021/10/19 00:36:47;;;;;;;7.30;4.05;;;;;;;;;;4915128;29;20036;-37
2021/10/19 00:39:13;;;;;;;4.65;2.97;;;;;;;;;;4915009;29;20039;-37
2021/10/19 00:41:38;;;;;;;8.32;4.75;;;;;;;;;;4915334;29;20032;-37
2021/10/19 00:44:04;;;;;;;6.00;3.97;;;;;;;;;;4914036;29;20076;-37
2021/10/19 00:46:29;;;;;;;5.80;3.90;;;;;;;;;;4915149;29;20357;-37
2021/10/19 00:48:54;;;;;;;5.07;4.10;;;;;;;;;;4915077;29;20024;-37
2021/10/19 00:51:20;;;;;;;10.30;4.45;;;;;;;;;;4914788;29;20114;-37
2021/10/19 00:53:45;;;;;;;9.18;5.32;;;;;;;;;;4914845;29;20049;-37
2021/10/19 00:56:11;;;;;;;8.48;3.78;;;;;;;;;;4914928;29;20037;-42
2021/10/19 00:58:37;;;;;;;15.20;4.43;;;;;;;;;;4914680;29;20029;-37
2021/10/19 01:01:03;;;;;;;8.05;4.40;;;;;;;;;;4914903;29;20050;-37
2021/10/19 01:03:28;;;;;;;11.75;5.38;;;;;;;;;;4915995;29;20024;-37
2021/10/19 01:05:54;;;;;;;9.32;4.40;;;;;;;;;;4918623;29;20028;-37
2021/10/19 01:08:20;;;;;;;6.63;3.70;;;;;;;;;;4918456;29;20207;-37
2021/10/19 01:10:45;;;;;;;6.22;3.80;;;;;;;;;;4918716;29;20028;-38
2021/10/19 01:13:11;;;;;;;11.20;4.22;;;;;;;;;;4918455;29;20052;-37
2021/10/19 01:15:36;;;;;;;8.00;4.68;;;;;;;;;;4918251;29;20091;-37
2021/10/19 01:18:02;;;;;;;8.52;4.38;;;;;;;;;;4917112;29;20047;-37
2021/10/19 01:20:29;;;;;;;6.30;3.33;;;;;;;;;;4916928;29;20396;-38
2021/10/19 01:22:55;;;;;;;7.85;4.13;;;;;;;;;;4918241;29;20092;-37
2021/10/19 01:25:22;;;;;;;7.20;4.32;;;;;;;;;;4918195;29;20051;-37
2021/10/19 01:27:49;;;;;;;5.82;4.45;;;;;;;;;;4918155;29;20039;-37
2021/10/19 01:30:14;;;;;;;5.60;3.67;;;;;;;;;;4918133;29;20064;-38
2021/10/19 01:32:39;;;;;;;6.05;3.67;;;;;;;;;;4918068;29;20087;-38
2021/10/19 01:35:05;;;;;;;5.18;3.38;;;;;;;;;;4917888;29;20080;-38
2021/10/19 01:37:31;;;;;;;9.20;4.25;;;;;;;;;;4917974;29;20047;-38
2021/10/19 01:39:56;;;;;;;5.78;4.05;;;;;;;;;;4918065;29;20035;-38
2021/10/19 01:42:21;;;;;;;8.68;4.28;;;;;;;;;;4932415;29;20028;-38
2021/10/19 01:44:47;;;;;;;6.38;3.95;;;;;;;;;;4917921;29;20083;-37
2021/10/19 01:47:12;;;;;;;5.32;3.92;;;;;;;;;;4917869;29;20020;-37
2021/10/19 01:49:38;;;;;;;6.45;4.10;;;;;;;;;;4917780;29;20080;-37
2021/10/19 01:52:03;;;;;;;5.40;3.75;;;;;;;;;;4918019;29;20565;-39
2021/10/19 01:54:29;;;;;;;5.72;4.13;;;;;;;;;;4917542;29;20160;-37
2021/10/19 01:56:54;;;;;;;6.18;4.47;;;;;;;;;;4916837;29;20020;-38
2021/10/19 01:59:19;;;;;;;7.85;4.30;;;;;;;;;;4917542;29;20514;-37
2021/10/19 02:01:45;;;;;;;6.25;3.55;;;;;;;;;;4917873;29;20061;-37
2021/10/19 02:04:10;;;;;;;10.13;4.45;;;;;;;;;;4917745;29;20032;-37
2021/10/19 02:06:35;;;;;;;7.05;4.43;;;;;;;;;;4917424;29;20034;-37
2021/10/19 02:09:01;;;;;;;4.97;3.53;;;;;;;;;;4917520;29;20160;-37
2021/10/19 02:11:26;;;;;;;6.50;3.63;;;;;;;;;;4917390;29;20065;-37
2021/10/19 02:13:52;;;;;;;9.40;4.25;;;;;;;;;;4917221;29;20036;-37
2021/10/19 02:16:17;;;;;;;7.80;4.90;;;;;;;;;;4916920;29;20028;-37
2021/10/19 02:18:42;;;;;;;7.10;4.50;;;;;;;;;;4917241;29;20516;-37
2021/10/19 02:21:08;;;;;;;3.55;2.70;;;;;;;;;;4917480;29;20020;-37
2021/10/19 02:23:33;;;;;;;8.95;4.70;;;;;;;;;;4917107;29;20020;-37
2021/10/19 02:25:59;;;;;;;8.65;4.38;;;;;;;;;;4917159;29;20067;-38
2021/10/19 02:28:24;;;;;;;7.75;4.68;;;;;;;;;;4917449;29;20032;-38
2021/10/19 02:30:49;;;;;;;7.13;4.30;;;;;;;;;;4917042;29;20495;-37
2021/10/19 02:33:15;;;;;;;5.85;4.03;;;;;;;;;;4916945;29;20048;-37
2021/10/19 02:35:40;;;;;;;5.18;3.83;;;;;;;;;;4917001;29;20047;-38
2021/10/19 02:38:06;;;;;;;6.95;3.88;;;;;;;;;;4916903;29;20036;-37
2021/10/19 02:40:31;;;;;;;5.38;3.88;;;;;;;;;;4916931;29;20024;-37
2021/10/19 02:42:57;;;;;;;5.55;4.13;;;;;;;;;;4917184;29;20479;-37
2021/10/19 02:45:22;;;;;;;5.28;3.83;;;;;;;;;;4916675;29;20027;-37
2021/10/19 02:47:48;;;;;;;5.90;4.13;;;;;;;;;;4916839;29;20024;-37
2021/10/19 02:50:14;;;;;;;7.60;3.33;;;;;;;;;;4916840;29;20055;-37
2021/10/19 02:52:39;;;;;;;3.67;2.95;;;;;;;;;;4916841;29;20380;-37
2021/10/19 02:55:06;;;;;;;5.80;4.15;;;;;;;;;;4916651;29;20039;-37
2021/10/19 02:57:32;;;;;;;9.43;5.10;;;;;;;;;;4916565;29;20510;-38
2021/10/19 02:59:57;;;;;;;7.03;3.85;;;;;;;;;;4916572;29;20028;-37
2021/10/19 03:02:22;;;;;;;4.78;3.55;;;;;;;;;;4916432;29;20039;-37
2021/10/19 03:04:48;;;;;;;6.82;4.00;;;;;;;;;;4916554;29;20026;-38
2021/10/19 03:07:13;;;;;;;7.75;4.32;;;;;;;;;;4916448;29;20107;-37
2021/10/19 03:09:38;;;;;;;4.68;2.58;;;;;;;;;;4916359;29;20490;-37
2021/10/19 03:12:04;;;;;;;6.82;4.25;;;;;;;;;;4916685;29;20032;-37
2021/10/19 03:14:29;;;;;;;6.72;4.10;;;;;;;;;;4916044;29;20476;-37
2021/10/19 03:16:55;;;;;;;5.03;3.47;;;;;;;;;;4916315;29;20024;-37
2021/10/19 03:19:20;;;;;;;6.63;4.00;;;;;;;;;;4916372;29;20485;-37
2021/10/19 03:21:45;;;;;;;7.28;4.65;;;;;;;;;;4916345;29;20104;-37
2021/10/19 03:24:11;;;;;;;7.25;4.35;;;;;;;;;;4916144;29;20472;-37
2021/10/19 03:26:36;;;;;;;7.82;4.35;;;;;;;;;;4915214;29;20068;-37
2021/10/19 03:29:02;;;;;;;7.28;4.22;;;;;;;;;;4914709;29;20122;-37
2021/10/19 03:31:30;;;;;;;5.10;4.07;;;;;;;;;;4916283;29;20028;-37
2021/10/19 03:33:56;;;;;;;7.13;4.00;;;;;;;;;;4915729;29;20083;-37
2021/10/19 03:36:21;;;;;;;4.05;3.10;;;;;;;;;;4915854;29;20068;-37
2021/10/19 03:38:47;;;;;;;8.07;4.45;;;;;;;;;;4915824;29;20028;-37
2021/10/19 03:41:12;;;;;;;6.57;4.18;;;;;;;;;;4915932;29;20040;-37
2021/10/19 03:43:38;;;;;;;7.68;4.03;;;;;;;;;;4915623;29;20059;-37
2021/10/19 03:46:03;;;;;;;6.03;4.22;;;;;;;;;;4915704;29;20040;-37
2021/10/19 03:48:28;;;;;;;5.03;3.35;;;;;;;;;;4915634;29;20016;-37
2021/10/19 03:50:54;;;;;;;5.55;4.00;;;;;;;;;;4914456;29;20070;-37
2021/10/19 03:53:19;;;;;;;7.47;4.03;;;;;;;;;;4915534;29;20360;-37
2021/10/19 03:55:47;;;;;;;11.85;5.05;;;;;;;;;;4915598;29;20047;-37
2021/10/19 03:58:13;;;;;;;7.13;3.42;;;;;;;;;;4915539;29;20095;-37
2021/10/19 04:00:38;;;;;;;9.90;4.00;;;;;;;;;;4915424;29;20035;-38
2021/10/19 04:03:04;;;;;;;7.22;4.03;;;;;;;;;;4915426;29;20097;-37
2021/10/19 04:05:29;;;;;;;5.55;3.58;;;;;;;;;;4915325;29;20031;-37
2021/10/19 04:07:54;;;;;;;8.20;4.75;;;;;;;;;;4914566;29;20020;-37
2021/10/19 04:10:21;;;;;;;5.65;3.85;;;;;;;;;;4915647;29;20642;-37
2021/10/19 04:12:47;;;;;;;5.97;3.75;;;;;;;;;;4915570;29;20034;-37
2021/10/19 04:15:12;;;;;;;5.28;3.63;;;;;;;;;;4915313;29;20048;-37
2021/10/19 04:17:38;;;;;;;5.80;3.83;;;;;;;;;;4915440;29;20036;-37
2021/10/19 04:20:04;;;;;;;6.90;3.72;;;;;;;;;;4915257;29;20051;-37
2021/10/19 04:22:29;;;;;;;7.03;4.13;;;;;;;;;;4915222;29;20020;-37
2021/10/19 04:24:55;;;;;;;7.72;4.65;;;;;;;;;;4914266;29;20032;-37
2021/10/19 04:27:21;;;;;;;7.10;4.32;;;;;;;;;;4915459;29;20024;-37
2021/10/19 04:29:46;;;;;;;5.75;4.47;;;;;;;;;;4915206;29;20039;-37
2021/10/19 04:32:11;;;;;;;6.68;4.25;;;;;;;;;;4914990;29;20044;-37
2021/10/19 04:34:37;;;;;;;5.78;4.07;;;;;;;;;;4914959;29;20048;-37
2021/10/19 04:37:02;;;;;;;5.43;3.67;;;;;;;;;;4915053;29;20505;-38
2021/10/19 04:39:28;;;;;;;8.63;3.75;;;;;;;;;;4920123;29;20040;-38
2021/10/19 04:41:53;;;;;;;6.35;3.65;;;;;;;;;;4920226;29;20103;-37
2021/10/19 04:44:19;;;;;;;8.05;3.58;;;;;;;;;;4921151;29;20043;-37
2021/10/19 04:46:44;;;;;;;7.75;4.20;;;;;;;;;;4921252;29;20124;-37
2021/10/19 04:49:10;;;;;;;6.00;3.25;;;;;;;;;;4921271;29;20040;-38
2021/10/19 04:51:35;;;;;;;7.03;3.95;;;;;;;;;;4936176;29;20031;-38
2021/10/19 04:54:01;;;;;;;7.03;4.38;;;;;;;;;;4921428;29;20558;-37
2021/10/19 04:56:26;;;;;;;8.20;5.03;;;;;;;;;;4921405;29;20376;-37
2021/10/19 04:58:52;;;;;;;7.55;4.28;;;;;;;;;;4921199;29;20091;-37
2021/10/19 05:01:17;;;;;;;5.28;4.03;;;;;;;;;;4921417;29;20028;-37
2021/10/19 05:03:46;;;;;;;5.57;3.72;;;;;;;;;;4921148;29;20032;-37
2021/10/19 05:06:12;;;;;;;6.10;4.07;;;;;;;;;;4921450;29;20024;-37
2021/10/19 05:08:37;;;;;;;5.68;3.47;;;;;;;;;;4920966;29;20538;-37
2021/10/19 05:11:03;;;;;;;6.32;3.45;;;;;;;;;;4920276;29;20024;-37
2021/10/19 05:13:28;;;;;;;6.78;4.13;;;;;;;;;;4919708;29;20065;-37
2021/10/19 05:15:53;;;;;;;5.10;3.50;;;;;;;;;;4920026;29;20083;-37
2021/10/19 05:18:19;;;;;;;5.95;4.10;;;;;;;;;;4921223;29;20037;-37
2021/10/19 05:20:44;;;;;;;5.45;4.05;;;;;;;;;;4919796;29;20024;-37
2021/10/19 05:23:12;;;;;;;5.93;4.03;;;;;;;;;;4921039;29;20036;-37
2021/10/19 05:25:37;;;;;;;7.78;4.50;;;;;;;;;;4919852;29;20035;-38
2021/10/19 05:28:03;;;;;;;4.35;3.08;;;;;;;;;;4920955;29;20024;-37
2021/10/19 05:30:28;;;;;;;6.30;3.97;;;;;;;;;;4920903;29;20495;-37
2021/10/19 05:32:54;;;;;;;9.10;4.22;;;;;;;;;;4920730;29;20051;-37
2021/10/19 05:35:19;;;;;;;6.90;4.03;;;;;;;;;;4921082;29;20044;-37
2021/10/19 05:37:45;;;;;;;6.20;4.35;;;;;;;;;;4919662;29;20567;-37
2021/10/19 05:40:11;;;;;;;7.07;3.83;;;;;;;;;;4920892;29;20028;-37
2021/10/19 05:42:37;;;;;;;6.78;4.20;;;;;;;;;;4920729;29;20040;-37
2021/10/19 05:45:04;;;;;;;5.40;3.60;;;;;;;;;;4921001;29;20040;-37
2021/10/19 05:47:29;;;;;;;7.03;4.05;;;;;;;;;;4920668;29;20492;-37
2021/10/19 05:49:55;;;;;;;5.93;4.32;;;;;;;;;;4918653;29;20067;-38
2021/10/19 05:52:20;;;;;;;7.10;4.75;;;;;;;;;;4917649;29;20632;-37
2021/10/19 05:54:46;;;;;;;6.95;3.95;;;;;;;;;;4917976;29;20040;-37
2021/10/19 05:57:11;;;;;;;7.07;4.38;;;;;;;;;;4917694;29;20115;-37
2021/10/19 05:59:36;;;;;;;5.55;4.25;;;;;;;;;;4917813;29;20028;-37
2021/10/19 06:02:03;;;;;;;6.28;3.97;;;;;;;;;;4918005;29;20431;-37
2021/10/19 06:04:29;;;;;;;6.63;3.65;;;;;;;;;;4917452;29;20025;-37
2021/10/19 06:06:55;;;;;;;7.28;3.80;;;;;;;;;;4916693;29;20043;-37
2021/10/19 06:09:21;;;;;;;5.90;3.58;;;;;;;;;;4917513;29;20032;-37
2021/10/19 06:11:46;;;;;;;7.95;3.53;;;;;;;;;;4917380;29;20037;-37
2021/10/19 06:14:12;;;;;;;7.85;4.43;;;;;;;;;;4916059;29;20044;-37
2021/10/19 06:16:37;;;;;;;5.22;3.55;;;;;;;;;;4916180;29;20491;-36
2021/10/19 06:19:02;;;;;;;8.10;4.57;;;;;;;;;;4917322;29;20028;-38
2021/10/19 06:21:28;;;;;;;5.95;3.85;;;;;;;;;;4917212;29;20119;-37
2021/10/19 06:23:53;;;;;;;5.97;4.32;;;;;;;;;;4917143;29;20603;-37
2021/10/19 06:26:19;;;;;;;6.30;3.92;;;;;;;;;;4917201;29;20040;-37
2021/10/19 06:28:45;;;;;;;4.85;3.83;;;;;;;;;;4916051;29;20538;-37
2021/10/19 06:31:10;;;;;;;5.85;3.17;;;;;;;;;;4917090;29;20056;-38
2021/10/19 06:33:36;;;;;;;9.32;4.43;;;;;;;;;;4931360;29;20063;-37
2021/10/19 06:36:02;;;;;;;5.95;3.97;;;;;;;;;;4916950;29;20052;-37
2021/10/19 06:38:28;;;;;;;5.65;3.38;;;;;;;;;;4917025;29;20043;-37
2021/10/19 06:40:53;;;;;;;5.18;3.67;;;;;;;;;;4917010;29;20372;-37
2021/10/19 06:43:19;;;;;;;7.60;4.05;;;;;;;;;;4931402;29;20029;-37
2021/10/19 06:45:44;;;;;;;5.97;4.13;;;;;;;;;;4916874;29;20076;-37
2021/10/19 06:48:09;;;;;;;4.88;3.60;;;;;;;;;;4916995;29;20384;-38
2021/10/19 06:50:36;;;;;;;5.75;3.75;;;;;;;;;;4916701;29;20062;-37
2021/10/19 06:53:01;;;;;;;5.65;4.13;;;;;;;;;;4915491;29;20454;-37
2021/10/19 06:55:27;;;;;;;6.80;4.00;;;;;;;;;;4916534;29;20134;-37
2021/10/19 06:57:52;;;;;;;7.05;3.97;;;;;;;;;;4916891;29;20102;-37
2021/10/19 07:00:18;;;;;;;6.30;3.10;;;;;;;;;;4916655;29;20123;-37
2021/10/19 07:02:44;;;;;;;6.55;3.85;;;;;;;;;;4916223;29;20117;-37
2021/10/19 07:05:10;;;;;;;5.57;4.03;;;;;;;;;;4916533;29;20475;-37
2021/10/19 07:07:39;;;;;;;7.07;4.30;;;;;;;;;;4916674;29;20021;-37
2021/10/19 07:10:04;;;;;;;7.32;4.18;;;;;;;;;;4916689;29;20458;-37
2021/10/19 07:12:30;;;;;;;7.65;4.63;;;;;;;;;;4916316;29;20100;-37
2021/10/19 07:14:55;;;;;;;7.95;3.67;;;;;;;;;;4916459;29;20476;-37
2021/10/19 07:17:21;;;;;;;7.20;3.78;;;;;;;;;;4916191;29;20024;-37
2021/10/19 07:19:47;;;;;;;6.03;3.53;;;;;;;;;;4916252;29;20432;-38
2021/10/19 07:22:13;;;;;;;5.60;3.65;;;;;;;;;;4916459;29;20024;-37
2021/10/19 07:24:38;;;;;;;5.90;3.38;;;;;;;;;;4916047;29;20035;-37
2021/10/19 07:27:03;;;;;;;7.28;3.72;;;;;;;;;;4916343;29;20160;-37
2021/10/19 07:29:29;;;;;;;5.10;3.80;;;;;;;;;;4916043;29;20039;-37
2021/10/19 07:31:54;;;;;;;7.22;4.20;;;;;;;;;;4915848;29;20139;-37
2021/10/19 07:34:20;;;;;;;6.70;3.63;;;;;;;;;;4915934;29;20039;-37
2021/10/19 07:36:46;;;;;;;6.88;3.90;;;;;;;;;;4916152;29;20296;-38
2021/10/19 07:39:12;;;;;;;5.32;3.65;;;;;;;;;;4915858;29;20040;-37
2021/10/19 07:41:37;;;;;;;6.13;3.47;;;;;;;;;;4915815;29;20023;-37
2021/10/19 07:44:04;;;;;;;6.63;3.78;;;;;;;;;;4915974;29;20043;-37
2021/10/19 07:46:29;;;;;;;5.80;4.18;;;;;;;;;;4915903;29;20116;-37
2021/10/19 07:48:55;;;;;;;6.57;3.70;;;;;;;;;;4915774;29;20188;-37
2021/10/19 07:51:20;;;;;;;4.60;3.80;;;;;;;;;;4914365;29;20028;-37
2021/10/19 07:53:46;;;;;;;7.72;3.92;;;;;;;;;;4915952;29;20025;-37
2021/10/19 07:56:11;;;;;;;6.93;4.18;;;;;;;;;;4915682;29;20028;-36
2021/10/19 07:58:37;;;;;;;7.80;3.58;;;;;;;;;;4915516;29;20592;-37
2021/10/19 08:01:03;;;;;;;7.00;3.78;;;;;;;;;;4915547;29;20020;-37
2021/10/19 08:03:31;;;;;;;8.02;3.45;;;;;;;;;;4915352;29;20020;-37
2021/10/19 08:05:56;;;;;;;9.93;4.38;;;;;;;;;;4914285;29;20110;-37
2021/10/19 08:08:21;;;;;;;5.55;3.58;;;;;;;;;;4915698;29;20115;-37
2021/10/19 08:10:47;;;;;;;7.63;4.00;;;;;;;;;;4915729;29;20407;-37
2021/10/19 08:13:14;;;;;;;9.93;4.13;;;;;;;;;;4915086;29;20064;-38
2021/10/19 08:15:39;;;;;;;6.07;3.05;;;;;;;;;;4915443;29;20043;-37
2021/10/19 08:18:06;;;;;;;5.57;3.65;;;;;;;;;;4915597;29;20503;-37
2021/10/19 08:20:31;;;;;;;6.53;4.25;;;;;;;;;;4913845;29;20383;-38
2021/10/19 08:22:57;;;;;;;5.22;3.63;;;;;;;;;;4915165;29;20028;-37
2021/10/19 08:25:22;;;;;;;5.07;3.97;;;;;;;;;;4915244;29;20020;-37
2021/10/19 08:27:48;;;;;;;4.53;3.45;;;;;;;;;;4915159;29;20111;-37
2021/10/19 08:30:15;;;;;;;5.22;3.08;;;;;;;;;;4915491;29;20028;-37
2021/10/19 08:32:42;;;;;;;5.13;3.38;;;;;;;;;;4914934;29;20051;-37
2021/10/19 08:35:08;;;;;;;5.35;3.30;;;;;;;;;;4913821;29;20055;-37
2021/10/19 08:37:33;;;;;;;7.30;3.10;;;;;;;;;;4915243;29;20036;-37
2021/10/19 08:39:59;;;;;;;6.32;3.80;;;;;;;;;;4915088;29;20476;-37
2021/10/19 08:42:25;;;;;;;6.57;3.08;;;;;;;;;;4914936;29;20079;-37
2021/10/19 08:44:50;;;;;;;4.30;3.63;;;;;;;;;;4915100;29;20020;-36
2021/10/19 08:47:16;;;;;;;6.60;3.75;;;;;;;;;;4915103;29;20365;-37
2021/10/19 08:49:42;;;;;;;5.30;3.20;;;;;;;;;;4914968;29;20090;-38
2021/10/19 08:52:08;;;;;;;3.90;2.88;;;;;;;;;;4914937;29;20056;-37
2021/10/19 08:54:33;;;;;;;7.47;3.80;;;;;;;;;;4915035;29;20043;-40
2021/10/19 08:56:59;;;;;;;5.07;3.08;;;;;;;;;;4914933;29;20032;-37
2021/10/19 08:59:25;;;;;;;5.55;3.33;;;;;;;;;;4914877;29;20024;-37
2021/10/19 09:01:53;;;;;;;7.05;4.13;;;;;;;;;;4914842;29;20035;-37
2021/10/19 09:04:19;;;;;;;7.22;4.45;;;;;;;;;;4914687;29;20032;-38
2021/10/19 09:06:45;;;;;;;7.05;3.63;;;;;;;;;;4915013;29;20043;-37
2021/10/19 09:09:16;;;;;;;9.77;3.78;;;;;;;;;;4915132;29;20514;-37
2021/10/19 09:11:41;;;;;;;6.13;4.05;;;;;;;;;;4913377;29;20032;-37
2021/10/19 09:14:07;;;;;;;3.50;2.40;;;;;;;;;;4914720;29;20436;-37
2021/10/19 09:16:34;;;;;;;6.05;3.90;;;;;;;;;;4914704;29;20035;-37
2021/10/19 09:19:00;;;;;;;5.32;3.75;;;;;;;;;;4915018;29;20032;-37
2021/10/19 09:21:29;;;;;;;4.22;2.95;;;;;;;;;;4914906;29;20130;-37
2021/10/19 09:23:54;;;;;;;13.48;3.67;;;;;;;;;;4914617;29;20127;-37
2021/10/19 09:26:29;;;;;;;5.32;3.55;;;;;;;;;;4917478;29;20056;-37
2021/10/19 09:28:54;;;;;;;4.90;3.40;;;;;;;;;;4918272;29;20028;-37
2021/10/19 09:31:20;;;;;;;4.60;3.25;;;;;;;;;;4918455;29;20028;-37
2021/10/19 09:33:55;;;;;;;7.68;3.47;;;;;;;;;;4917919;29;20052;-37
2021/10/19 09:36:30;;;;;;;5.28;3.33;;;;;;;;;;4918241;29;20134;-37
2021/10/19 09:38:56;;;;;;;5.82;3.28;;;;;;;;;;4918079;29;20028;-37
2021/10/19 09:41:21;;;;;;;4.25;3.00;;;;;;;;;;4918264;29;20030;-37
2021/10/19 09:43:47;;;;;;;6.20;3.75;;;;;;;;;;4917932;29;20040;-37
2021/10/19 09:46:12;;;;;;;6.82;3.10;;;;;;;;;;4917906;29;20047;-37
2021/10/19 09:48:40;;;;;;;6.72;3.47;;;;;;;;;;4917872;29;20559;-37
2021/10/19 09:51:05;;;;;;;5.70;3.45;;;;;;;;;;4917991;29;20148;-37
2021/10/19 09:53:31;;;;;;;3.50;3.05;;;;;;;;;;4917870;29;20114;-37
2021/10/19 09:55:57;;;;;;;3.90;3.30;;;;;;;;;;4918012;29;20047;-37
2021/10/19 09:58:23;;;;;;;4.07;3.13;;;;;;;;;;4917660;29;20043;-38
2021/10/19 10:00:49;;;;;;;6.25;3.63;;;;;;;;;;4918003;29;20024;-38
2021/10/19 10:03:15;;;;;;;4.70;2.78;;;;;;;;;;4917638;29;20039;-37
2021/10/19 10:05:41;;;;;;;4.82;2.83;;;;;;;;;;4917556;29;20032;-37
2021/10/19 10:08:09;;;;;;;13.05;3.30;;;;;;;;;;4917623;29;20028;-37
2021/10/19 10:10:35;;;;;;;5.80;2.92;;;;;;;;;;4916278;29;20024;-37
2021/10/19 10:13:02;;;;;;;6.65;2.95;;;;;;;;;;4917453;29;20040;-37
2021/10/19 10:15:33;;;;;;;6.28;3.25;;;;;;;;;;4917375;29;20043;-37
2021/10/19 10:18:03;;;;;;;4.57;3.03;;;;;;;;;;4917444;29;20031;-37
2021/10/19 10:20:49;;;;;;;3.97;2.53;;;;;;;;;;4917314;29;20039;-37
2021/10/19 10:23:17;;;;;;;4.13;2.70;;;;;;;;;;4917165;29;20096;-37
2021/10/19 10:25:43;;;;;;;4.40;3.70;;;;;;;;;;4917217;29;20079;-37
2021/10/19 10:28:15;;;;;;;4.47;3.30;;;;;;;;;;4917427;29;20590;-37
2021/10/19 10:30:40;;;;;;;4.80;2.97;;;;;;;;;;4917335;29;20036;-37
2021/10/19 10:33:07;;;;;;;6.53;3.67;;;;;;;;;;4916913;29;20050;-37
2021/10/19 10:35:32;;;;;;;6.20;4.00;;;;;;;;;;4916640;29;20051;-37
2021/10/19 10:37:58;;;;;;;5.65;3.40;;;;;;;;;;4917135;29;20023;-37
2021/10/19 10:40:33;;;;;;;4.68;3.17;;;;;;;;;;4917029;29;20084;-37
2021/10/19 10:43:17;;;;;;;4.13;2.95;;;;;;;;;;4916848;29;20088;-37
2021/10/19 10:45:42;;;;;;;6.07;3.05;;;;;;;;;;4916963;29;20029;-37
2021/10/19 10:48:08;;;;;;;3.90;2.60;;;;;;;;;;4915799;29;20024;-37
2021/10/19 10:50:34;;;;;;;4.50;2.95;;;;;;;;;;4916633;29;20036;-37
2021/10/19 10:53:03;;;;;;;5.30;2.78;;;;;;;;;;4916537;29;20467;-37
2021/10/19 10:55:55;;;;;;;4.72;2.63;;;;;;;;;;4916877;29;20063;-37
2021/10/19 10:58:32;;;;;;;4.10;2.63;;;;;;;;;;4913841;29;20047;-37
2021/10/19 11:00:59;;;;;;;5.55;2.40;;;;;;;;;;4916924;29;20138;-37
2021/10/19 11:03:24;;;;;;;6.57;2.65;;;;;;;;;;4916706;29;20440;-37
2021/10/19 11:05:52;;;;;;;3.53;2.30;;;;;;;;;;4916591;29;20055;-37
2021/10/19 11:08:30;;;;;;;4.45;2.97;;;;;;;;;;4916813;29;20095;-37
2021/10/19 11:11:03;;;;;;;6.45;2.22;;;;;;;;;;4916394;29;20032;-37
2021/10/19 11:13:29;;;;;;;4.53;2.97;;;;;;;;;;4916356;29;20040;-37
2021/10/19 11:15:56;;;;;;;2.45;2.20;;;;;;;;;;4915106;29;20508;-37
2021/10/19 11:18:25;;;;;;;3.22;2.75;;;;;;;;;;4915144;29;20036;-37
2021/10/19 11:20:51;;;;;;;6.00;2.40;;;;;;;;;;4916247;29;20028;-37
2021/10/19 11:23:16;;;;;;;7.10;2.67;;;;;;;;;;4916274;29;20028;-38
2021/10/19 11:25:42;;;;;;;4.10;2.70;;;;;;;;;;4915966;29;20080;-37
2021/10/19 11:28:07;;;;;;;5.63;2.72;;;;;;;;;;4916436;29;20024;-38
2021/10/19 11:30:34;;;;;;;4.85;2.80;;;;;;;;;;4916281;29;20051;-37
2021/10/19 11:32:59;;;;;;;8.13;2.35;;;;;;;;;;4915857;29;20048;-37
2021/10/19 11:35:26;;;;;;;5.15;3.22;;;;;;;;;;4915858;29;20059;-37
2021/10/19 11:37:52;;;;;;;4.72;2.70;;;;;;;;;;4916282;29;20043;-37
2021/10/19 11:40:17;;;;;;;6.97;4.00;;;;;;;;;;4930504;29;20031;-37
2021/10/19 11:42:53;;;;;;;3.42;2.40;;;;;;;;;;4915770;29;20111;-37
2021/10/19 11:45:20;;;;;;;3.03;2.30;;;;;;;;;;4916077;29;20027;-37
2021/10/19 11:47:47;;;;;;;4.47;3.15;;;;;;;;;;4915030;29;20039;-37
2021/10/19 11:50:15;;;;;;;7.05;2.90;;;;;;;;;;4916025;29;20036;-37
2021/10/19 11:52:40;;;;;;;4.72;3.08;;;;;;;;;;4915657;29;20035;-37
2021/10/19 11:55:06;;;;;;;5.40;3.03;;;;;;;;;;4915652;29;20052;-37
2021/10/19 11:57:36;;;;;;;3.67;2.42;;;;;;;;;;4915561;29;20508;-37
2021/10/19 12:00:08;;;;;;;6.28;3.28;;;;;;;;;;4915900;29;20096;-37
2021/10/19 12:02:57;;;;;;;5.15;2.55;;;;;;;;;;4915440;29;20040;-38
2021/10/19 12:05:23;;;;;;;2.97;2.33;;;;;;;;;;4915627;29;20036;-37
2021/10/19 12:07:49;;;;;;;3.10;2.05;;;;;;;;;;4914271;29;20020;-37
2021/10/19 12:10:16;;;;;;;4.18;2.72;;;;;;;;;;4915435;29;20088;-37
2021/10/19 12:12:58;;;;;;;4.25;3.20;;;;;;;;;;4915260;29;20039;-37
2021/10/19 12:15:25;;;;;;;6.63;2.97;;;;;;;;;;4915548;29;20043;-42
2021/10/19 12:18:01;;;;;;;5.75;3.40;;;;;;;;;;4915274;29;20039;-37
2021/10/19 12:20:27;;;;;;;4.13;2.42;;;;;;;;;;4915305;29;20032;-37
2021/10/19 12:23:04;;;;;;;4.03;2.50;;;;;;;;;;4915396;29;20176;-37
2021/10/19 12:25:57;;;;;;;3.70;2.53;;;;;;;;;;4915216;29;20040;-38
2021/10/19 12:28:25;;;;;;;5.47;3.15;;;;;;;;;;4911600;29;20046;-37
2021/10/19 12:30:53;;;;;;;2.60;2.00;;;;;;;;;;4915206;29;20103;-37
2021/10/19 12:33:20;;;;;;;2.72;2.35;;;;;;;;;;4915052;29;20137;-37
2021/10/19 12:35:48;;;;;;;3.78;2.10;;;;;;;;;;4915261;29;20102;-37
2021/10/19 12:38:14;;;;;;;4.43;2.58;;;;;;;;;;4915082;29;20036;-37
2021/10/19 12:40:43;;;;;;;3.38;2.40;;;;;;;;;;4914997;29;20127;-37
2021/10/19 12:43:09;;;;;;;3.47;2.67;;;;;;;;;;4915283;29;20032;-37
2021/10/19 12:45:34;;;;;;;4.75;3.08;;;;;;;;;;4913760;29;20028;-37
2021/10/19 12:48:04;;;;;;;4.07;2.28;;;;;;;;;;4915035;29;20040;-37
2021/10/19 12:50:29;;;;;;;6.13;3.05;;;;;;;;;;4915159;29;20415;-37
2021/10/19 12:52:55;;;;;;;2.47;1.70;;;;;;;;;;4915003;29;20036;-37
2021/10/19 12:55:20;;;;;;;6.68;3.20;;;;;;;;;;4915233;29;20040;-37
2021/10/19 12:57:47;;;;;;;9.13;2.83;;;;;;;;;;4914910;29;20483;-37
2021/10/19 13:00:13;;;;;;;4.25;2.45;;;;;;;;;;4917425;29;20035;-38
2021/10/19 13:02:39;;;;;;;9.25;2.65;;;;;;;;;;4918619;29;20036;-38
2021/10/19 13:05:05;;;;;;;2.58;1.98;;;;;;;;;;4918962;29;20031;-37
2021/10/19 13:07:30;;;;;;;2.15;1.90;;;;;;;;;;4918592;29;20032;-37
2021/10/19 13:09:55;;;;;;;4.35;2.50;;;;;;;;;;4918693;29;20115;-37
2021/10/19 13:12:21;;;;;;;3.75;2.13;;;;;;;;;;4918748;29;20067;-38
2021/10/19 13:14:46;;;;;;;3.38;2.03;;;;;;;;;;4933120;29;20038;-37
2021/10/19 13:17:12;;;;;;;4.28;2.53;;;;;;;;;;4918575;29;20046;-37
2021/10/19 13:19:37;;;;;;;6.15;2.25;;;;;;;;;;4918338;29;20038;-38
2021/10/19 13:22:03;;;;;;;6.15;2.72;;;;;;;;;;4918256;29;20028;-38
2021/10/19 13:24:28;;;;;;;3.65;2.17;;;;;;;;;;4918645;29;20052;-37
2021/10/19 13:26:54;;;;;;;2.72;2.25;;;;;;;;;;4916990;29;20544;-38
2021/10/19 13:29:19;;;;;;;1.83;1.73;;;;;;;;;;4918342;29;20031;-37
2021/10/19 13:31:44;;;;;;;4.05;2.78;;;;;;;;;;4918284;29;20032;-38
2021/10/19 13:34:11;;;;;;;3.75;2.60;;;;;;;;;;4918060;29;20070;-38
2021/10/19 13:36:36;;;;;;;4.38;2.30;;;;;;;;;;4901239;29;20119;-37
2021/10/19 13:39:02;;;;;;;4.35;2.53;;;;;;;;;;4918133;29;20110;-37
2021/10/19 13:41:28;;;;;;;4.82;2.10;;;;;;;;;;4917941;29;20056;-38
2021/10/19 13:43:53;;;;;;;3.38;1.95;;;;;;;;;;4916859;29;20024;-37
2021/10/19 13:46:19;;;;;;;3.53;2.50;;;;;;;;;;4918021;29;20115;-37
2021/10/19 13:48:44;;;;;;;6.72;2.47;;;;;;;;;;4917817;29;20024;-37
2021/10/19 13:51:10;;;;;;;4.22;2.28;;;;;;;;;;4917941;29;20028;-37
2021/10/19 13:53:36;;;;;;;6.15;2.22;;;;;;;;;;4917776;29;20038;-37
2021/10/19 13:56:02;;;;;;;4.05;2.60;;;;;;;;;;4917761;29;20072;-37
2021/10/19 13:58:29;;;;;;;4.50;2.38;;;;;;;;;;4917824;29;20483;-37
2021/10/19 14:00:54;;;;;;;4.30;2.38;;;;;;;;;;4917767;29;20128;-37
2021/10/19 14:03:20;;;;;;;3.42;2.22;;;;;;;;;;4917694;29;20055;-38
2021/10/19 14:05:45;;;;;;;3.13;2.35;;;;;;;;;;4917610;29;20032;-37
2021/10/19 14:08:11;;;;;;;3.75;2.63;;;;;;;;;;4917927;29;20025;-37
2021/10/19 14:10:37;;;;;;;4.20;2.10;;;;;;;;;;4916788;29;20028;-37
2021/10/19 14:13:03;;;;;;;4.75;2.22;;;;;;;;;;4917733;29;20020;-37
2021/10/19 14:15:31;;;;;;;3.67;2.63;;;;;;;;;;4917329;29;20054;-38
2021/10/19 14:17:56;;;;;;;4.22;2.63;;;;;;;;;;4917470;29;20027;-37
2021/10/19 14:20:22;;;;;;;4.68;3.10;;;;;;;;;;4917433;29;20036;-37
2021/10/19 14:22:47;;;;;;;2.60;2.20;;;;;;;;;;4917202;29;20044;-38
2021/10/19 14:25:13;;;;;;;4.60;2.42;;;;;;;;;;4917349;29;20384;-37
2021/10/19 14:27:38;;;;;;;3.97;2.25;;;;;;;;;;4917306;29;20016;-37
2021/10/19 14:30:04;;;;;;;2.90;2.28;;;;;;;;;;4917177;29;20046;-37
2021/10/19 14:32:30;;;;;;;3.03;2.33;;;;;;;;;;4917004;29;20044;-37
2021/10/19 14:34:57;;;;;;;3.55;2.33;;;;;;;;;;4916192;29;20068;-37
2021/10/19 14:37:23;;;;;;;2.60;1.80;;;;;;;;;;4917334;29;20071;-37